aviador You're here:

KLQK Decoded Metar

in
Report Time2018-02-21 21:15:00
UTC Time2018-02-21 21:24:07
Flight Rules vfr VFR
Wind260° at 04 kt
W.Decomp.*RWY 23: 3.5 kt HW 2.0 kt RCW
W.Rank260° ranks 12
Current wind is below 260° avg. (6.4)
Visibility9999 m
Phenomena:N/A
Clouds:Scattered 026 Hf
Broken 031 Hf
Broken 037 Hf
Expected CloudBase > 2,400 ft AGL from Temp-Dew spread
Ceiling3,100 ft
Temp25°C
Dew Point19°C (69% RH)
QNH1028 hPa
Raw Report
METAR KLQK 212115Z AUTO 26004KT 10SM SCT026 BKN031 BKN037 25/19 A3037
RMK AO2 T02500188=

Extra information for KLQK:More info

Social comments